Time;durP1;ratioP1;P1;durP2;ratioP2;P2;SDS_P1;SDS_P2;PMS_P1;PMS_P2;Temp;Humidity;BMP_temperature;BMP_pressure;BME280_temperature;BME280_humidity;BME280_pressure;Samples;Min_cycle;Max_cycle;Signal;HPM_P1;HPM_P2
2023/02/05 00:01:11;;;;;;;65.63;33.47;;;;;;;6.46;100.00;103534.81;5086324;28;20028;-74
2023/02/05 00:03:38;;;;;;;65.90;34.80;;;;;;;6.44;100.00;103534.72;5083995;28;20031;-74
2023/02/05 00:06:03;;;;;;;64.90;34.90;;;;;;;6.44;100.00;103533.84;5084410;28;20063;-76
2023/02/05 00:08:30;;;;;;;71.93;34.45;;;;;;;6.43;100.00;103539.88;5085426;28;20048;-75
2023/02/05 00:10:56;;;;;;;64.30;34.10;;;;;;;6.44;100.00;103539.09;5083350;28;20032;-81
2023/02/05 00:13:22;;;;;;;67.57;35.78;;;;;;;6.42;100.00;103532.81;5086008;28;20067;-75
2023/02/05 00:15:47;;;;;;;70.97;37.65;;;;;;;6.43;100.00;103529.38;5082834;28;20044;-75
2023/02/05 00:18:13;;;;;;;70.10;36.67;;;;;;;6.42;100.00;103520.59;5085590;28;20043;-75
2023/02/05 00:20:38;;;;;;;74.25;38.72;;;;;;;6.40;100.00;103522.19;5083468;28;20513;-75
2023/02/05 00:23:03;;;;;;;72.57;38.85;;;;;;;6.40;100.00;103519.56;5084401;28;20029;-74
2023/02/05 00:25:29;;;;;;;76.57;40.47;;;;;;;6.39;100.00;103511.59;5084608;28;20117;-80
2023/02/05 00:27:55;;;;;;;73.13;39.83;;;;;;;6.38;100.00;103507.19;5082946;28;20032;-74
2023/02/05 00:30:20;;;;;;;72.18;40.08;;;;;;;6.35;100.00;103497.38;5085974;28;20028;-74
2023/02/05 00:32:45;;;;;;;77.45;40.83;;;;;;;6.33;100.00;103498.06;5082155;28;20063;-75
2023/02/05 00:35:11;;;;;;;74.20;41.00;;;;;;;6.30;100.00;103490.00;5085432;28;20489;-75
2023/02/05 00:37:36;;;;;;;80.90;42.83;;;;;;;6.29;100.00;103478.56;5083391;28;20030;-76
2023/02/05 00:40:03;;;;;;;82.05;43.42;;;;;;;6.27;100.00;103481.09;5083685;28;20552;-75
2023/02/05 00:42:28;;;;;;;77.15;42.05;;;;;;;6.30;100.00;103476.88;5084606;28;20028;-75
2023/02/05 00:44:53;;;;;;;78.50;41.55;;;;;;;6.32;100.00;103483.09;5082274;28;20032;-75
2023/02/05 00:47:19;;;;;;;81.40;44.38;;;;;;;6.31;100.00;103479.59;5085550;28;20047;-74
2023/02/05 00:49:44;;;;;;;84.03;43.53;;;;;;;6.30;100.00;103483.00;5081707;28;20040;-78
2023/02/05 00:52:09;;;;;;;79.93;43.67;;;;;;;6.32;100.00;103483.09;5084538;28;20430;-75
2023/02/05 00:54:35;;;;;;;79.90;42.33;;;;;;;6.32;100.00;103472.59;5083353;28;20407;-74
2023/02/05 00:57:00;;;;;;;81.75;42.15;;;;;;;6.31;100.00;103473.44;5083288;28;20029;-75
2023/02/05 00:59:26;;;;;;;83.57;42.50;;;;;;;6.32;100.00;103475.22;5084645;28;20070;-76
2023/02/05 01:01:51;;;;;;;78.97;43.83;;;;;;;6.31;100.00;103478.69;5081650;28;20490;-77
2023/02/05 01:04:16;;;;;;;79.50;43.00;;;;;;;6.31;100.00;103478.69;5084041;28;20127;-75
2023/02/05 01:06:42;;;;;;;78.53;43.53;;;;;;;6.30;100.00;103484.75;5082182;28;20028;-75
2023/02/05 01:09:07;;;;;;;80.72;44.05;;;;;;;6.30;100.00;103479.50;5083852;28;20029;-74
2023/02/05 01:11:32;;;;;;;81.35;43.85;;;;;;;6.25;100.00;103482.72;5082218;28;20110;-76
2023/02/05 01:13:58;;;;;;;84.53;44.72;;;;;;;6.25;100.00;103480.09;5082334;28;20379;-75
2023/02/05 01:16:23;;;;;;;81.47;44.70;;;;;;;6.23;100.00;103471.22;5084864;28;20364;-78
2023/02/05 01:18:48;;;;;;;79.80;45.22;;;;;;;6.23;100.00;103479.09;5081450;28;20041;-75
2023/02/05 01:21:14;;;;;;;79.95;45.95;;;;;;;6.22;100.00;103482.53;5084528;28;20024;-75
2023/02/05 01:23:39;;;;;;;83.97;45.70;;;;;;;6.24;100.00;103482.63;5082479;28;20028;-75
2023/02/05 01:26:05;;;;;;;82.30;45.97;;;;;;;6.23;100.00;103484.34;5083155;28;20126;-75
2023/02/05 01:28:30;;;;;;;80.13;44.60;;;;;;;6.24;100.00;103486.16;5083402;28;20062;-75
2023/02/05 01:30:56;;;;;;;80.57;46.20;;;;;;;6.23;100.00;103488.69;5081979;28;20064;-75
2023/02/05 01:33:21;;;;;;;80.55;44.38;;;;;;;6.27;100.00;103498.59;5084645;28;20031;-79
2023/02/05 01:35:46;;;;;;;80.07;46.30;;;;;;;6.23;100.00;103499.19;5081179;28;20399;-75
2023/02/05 01:38:13;;;;;;;79.65;45.85;;;;;;;6.21;100.00;103500.81;5084220;28;20374;-75
2023/02/05 01:40:39;;;;;;;75.40;42.47;;;;;;;6.24;100.00;103490.50;5082121;28;20046;-75
2023/02/05 01:43:10;;;;;;;73.93;44.60;;;;;;;6.23;100.00;103489.63;5083050;28;20024;-75
2023/02/05 01:45:49;;;;;;;77.35;44.80;;;;;;;6.22;100.00;103485.16;5082483;28;20023;-75
2023/02/05 01:48:19;;;;;;;78.90;46.47;;;;;;;6.20;100.00;103486.75;5084406;28;20046;-75
2023/02/05 01:50:49;;;;;;;79.10;47.00;;;;;;;6.22;100.00;103492.16;5081122;28;20021;-79
2023/02/05 01:53:20;;;;;;;72.88;44.63;;;;;;;6.18;100.00;103487.50;5084077;28;20059;-75
2023/02/05 01:56:07;;;;;;;75.35;46.80;;;;;;;6.35;100.00;103494.75;5081093;28;20115;-75
2023/02/05 01:58:39;;;;;;;76.88;45.80;;;;;;;6.23;100.00;103499.19;5082578;28;20506;-75
2023/02/05 02:01:05;;;;;;;78.38;45.90;;;;;;;6.19;100.00;103494.53;5081790;28;20024;-79
2023/02/05 02:03:31;;;;;;;79.35;45.70;;;;;;;6.19;100.00;103498.09;5080786;28;20116;-78
2023/02/05 02:05:56;;;;;;;78.82;46.45;;;;;;;6.16;100.00;103492.66;5083692;28;20047;-75
2023/02/05 02:08:22;;;;;;;76.22;44.83;;;;;;;6.17;100.00;103491.81;5080838;28;20055;-77
2023/02/05 02:10:50;;;;;;;81.22;45.45;;;;;;;6.13;100.00;103487.22;5084290;28;20065;-78
2023/02/05 02:13:19;;;;;;;79.43;46.00;;;;;;;6.14;100.00;103478.50;5081096;28;20160;-75
2023/02/05 02:15:45;;;;;;;79.20;44.42;;;;;;;6.13;100.00;103470.50;5084055;28;20028;-79
2023/02/05 02:18:27;;;;;;;79.80;44.45;;;;;;;6.08;100.00;103473.75;5081430;28;20035;-75
2023/02/05 02:21:23;;;;;;;73.88;44.70;;;;;;;6.10;100.00;103477.41;5080744;28;20029;-76
2023/02/05 02:24:12;;;;;;;81.30;46.63;;;;;;;6.10;100.00;103494.84;5080643;28;20029;-74
2023/02/05 02:26:47;;;;;;;79.13;44.33;;;;;;;6.13;100.00;103497.72;5082908;28;20027;-75
2023/02/05 02:29:49;;;;;;;72.10;41.20;;;;;;;6.17;100.00;103483.03;5081332;28;20387;-74
2023/02/05 02:32:22;;;;;;;68.57;41.47;;;;;;;6.09;100.00;103470.31;5080240;28;20047;-75
2023/02/05 02:34:54;;;;;;;72.32;43.03;;;;;;;6.05;100.00;103456.91;5080509;28;20039;-79
2023/02/05 02:37:34;;;;;;;71.68;41.20;;;;;;;6.02;100.00;103461.97;5080439;28;20025;-79
2023/02/05 02:40:08;;;;;;;70.32;40.83;;;;;;;6.00;100.00;103460.94;5081667;28;20025;-75
2023/02/05 02:42:50;;;;;;;68.57;40.63;;;;;;;5.98;100.00;103460.84;5082298;28;20037;-75
2023/02/05 02:45:20;;;;;;;70.80;41.07;;;;;;;5.94;100.00;103462.34;5083839;28;20054;-78
2023/02/05 02:47:56;;;;;;;68.13;40.00;;;;;;;5.91;100.00;103464.75;5080595;28;20020;-75
2023/02/05 02:50:33;;;;;;;70.18;40.47;;;;;;;5.92;100.00;103456.06;5080598;28;20491;-76
2023/02/05 02:53:03;;;;;;;66.55;38.47;;;;;;;5.87;100.00;103457.50;5081228;28;20478;-75
2023/02/05 02:55:34;;;;;;;66.30;39.00;;;;;;;5.87;100.00;103457.50;5082899;28;20024;-75
2023/02/05 02:58:01;;;;;;;64.05;37.80;;;;;;;5.85;100.00;103461.72;5081423;28;20035;-79
2023/02/05 03:00:28;;;;;;;65.18;38.38;;;;;;;5.83;100.00;103460.72;5083161;28;20082;-75
2023/02/05 03:03:01;;;;;;;63.47;37.28;;;;;;;5.85;100.00;103453.84;5080402;28;20378;-74
2023/02/05 03:05:28;;;;;;;63.20;35.45;;;;;;;5.84;100.00;103457.28;5083224;28;20024;-75
2023/02/05 03:08:01;;;;;;;63.53;36.30;;;;;;;5.83;100.00;103457.19;5080317;28;20480;-75
2023/02/05 03:10:45;;;;;;;59.63;34.95;;;;;;;5.82;100.00;103447.50;5083398;28;20035;-75
2023/02/05 03:13:11;;;;;;;60.25;35.28;;;;;;;5.76;100.00;103445.38;5084452;28;20026;-79
2023/02/05 03:15:40;;;;;;;59.20;34.78;;;;;;;5.74;100.00;103437.41;5085488;28;20054;-78
2023/02/05 03:18:06;;;;;;;57.67;33.58;;;;;;;5.72;100.00;103425.91;5085664;28;20020;-76
2023/02/05 03:20:37;;;;;;;53.42;32.72;;;;;;;5.73;100.00;103439.91;5085887;28;20024;-77
2023/02/05 03:23:03;;;;;;;52.40;31.60;;;;;;;5.75;100.00;103435.66;5085064;28;20512;-79
2023/02/05 03:25:29;;;;;;;49.95;29.58;;;;;;;5.76;100.00;103434.88;5086369;28;20028;-79
2023/02/05 03:27:56;;;;;;;48.88;29.25;;;;;;;5.73;100.00;103418.94;5083786;28;20025;-75
2023/02/05 03:30:26;;;;;;;45.53;26.70;;;;;;;5.70;100.00;103410.84;5086989;28;20023;-76
2023/02/05 03:33:24;;;;;;;46.80;27.33;;;;;;;5.69;100.00;103419.53;5083498;28;20055;-78
2023/02/05 03:36:01;;;;;;;45.83;27.50;;;;;;;5.68;100.00;103417.69;5082492;28;20483;-75
2023/02/05 03:38:38;;;;;;;45.15;26.38;;;;;;;5.64;100.00;103432.34;5083982;28;20020;-74
2023/02/05 03:41:04;;;;;;;43.30;26.88;;;;;;;5.64;100.00;103440.22;5085509;28;20069;-79
2023/02/05 03:43:38;;;;;;;41.75;24.77;;;;;;;5.68;100.00;103444.88;5084015;28;20028;-75
2023/02/05 03:46:30;;;;;;;39.53;23.35;;;;;;;5.71;100.00;103445.06;5085095;28;20478;-79
2023/02/05 03:49:21;;;;;;;39.88;23.88;;;;;;;5.73;100.00;103460.91;5083470;28;20055;-75
2023/02/05 03:52:02;;;;;;;39.55;22.15;;;;;;;5.68;100.00;103451.81;5083408;28;20027;-78
2023/02/05 03:54:42;;;;;;;37.03;21.00;;;;;;;5.72;100.00;103451.22;5083805;28;20112;-75
2023/02/05 03:57:19;;;;;;;36.47;21.48;;;;;;;5.70;100.00;103442.34;5084397;28;20452;-78
2023/02/05 03:59:46;;;;;;;34.83;19.75;;;;;;;5.70;100.00;103439.72;5085940;28;20024;-75
2023/02/05 04:02:12;;;;;;;36.35;20.00;;;;;;;5.64;100.00;103437.59;5083928;28;20056;-74
2023/02/05 04:04:37;;;;;;;32.85;18.20;;;;;;;5.63;100.00;103461.13;5084863;28;20157;-79
2023/02/05 04:07:03;;;;;;;32.03;17.30;;;;;;;5.68;100.00;103460.63;5084894;28;20028;-75
2023/02/05 04:09:28;;;;;;;33.60;18.27;;;;;;;5.66;100.00;103456.97;5083726;28;20363;-79
2023/02/05 04:11:53;;;;;;;32.83;17.85;;;;;;;5.64;100.00;103462.94;5086094;28;20469;-75
2023/02/05 04:14:19;;;;;;;32.40;17.48;;;;;;;5.69;100.00;103466.78;5082643;28;20559;-75
2023/02/05 04:16:44;;;;;;;33.85;18.85;;;;;;;5.66;100.00;103469.19;5085784;28;20428;-79
2023/02/05 04:19:09;;;;;;;32.70;18.10;;;;;;;5.62;100.00;103467.16;5083596;28;20429;-75
2023/02/05 04:21:35;;;;;;;32.65;17.15;;;;;;;5.69;100.00;103472.03;5084357;28;20426;-79
2023/02/05 04:24:01;;;;;;;31.98;16.92;;;;;;;5.68;100.00;103475.44;5083932;28;20028;-75
2023/02/05 04:26:26;;;;;;;32.42;17.75;;;;;;;5.63;100.00;103482.13;5082839;28;20479;-75
2023/02/05 04:28:52;;;;;;;33.28;18.13;;;;;;;5.63;100.00;103466.38;5086150;28;20028;-75
2023/02/05 04:31:17;;;;;;;32.75;16.85;;;;;;;5.68;100.00;103462.31;5082291;28;20495;-75
2023/02/05 04:33:42;;;;;;;32.65;17.05;;;;;;;5.59;100.00;103460.94;5085199;28;20459;-75
2023/02/05 04:36:09;;;;;;;31.60;16.80;;;;;;;5.57;100.00;103461.63;5083897;28;20383;-76
2023/02/05 04:38:34;;;;;;;31.00;16.10;;;;;;;5.54;100.00;103457.06;5083777;28;20036;-79
2023/02/05 04:41:00;;;;;;;30.17;15.77;;;;;;;5.49;100.00;103453.25;5084712;28;20482;-75
2023/02/05 04:43:26;;;;;;;30.05;16.02;;;;;;;5.47;100.00;103454.84;5082468;28;20028;-75
2023/02/05 04:45:51;;;;;;;32.47;16.70;;;;;;;5.45;100.00;103459.09;5085397;28;20028;-78
2023/02/05 04:48:17;;;;;;;31.05;16.42;;;;;;;5.48;100.00;103464.53;5082267;28;20025;-75
2023/02/05 04:50:42;;;;;;;29.98;15.90;;;;;;;5.48;100.00;103461.91;5086339;28;20028;-78
2023/02/05 04:53:08;;;;;;;31.25;16.55;;;;;;;5.48;100.00;103461.03;5083958;28;20039;-75
2023/02/05 04:55:34;;;;;;;31.17;16.23;;;;;;;5.46;100.00;103453.06;5084162;28;20032;-75
2023/02/05 04:57:59;;;;;;;28.90;15.85;;;;;;;5.50;100.00;103451.53;5082686;28;20107;-79
2023/02/05 05:00:25;;;;;;;29.85;15.85;;;;;;;5.49;100.00;103457.56;5085251;28;20040;-75
2023/02/05 05:02:51;;;;;;;31.45;16.60;;;;;;;5.48;100.00;103461.03;5081929;28;20029;-75
2023/02/05 05:05:17;;;;;;;30.20;16.33;;;;;;;5.48;100.00;103461.03;5084770;28;20141;-75
2023/02/05 05:07:42;;;;;;;31.63;16.15;;;;;;;5.48;100.00;103451.41;5082503;28;20024;-75
2023/02/05 05:10:08;;;;;;;30.65;16.38;;;;;;;5.46;100.00;103455.66;5083598;28;20032;-75
2023/02/05 05:12:35;;;;;;;34.25;17.55;;;;;;;5.43;100.00;103449.28;5083625;28;20051;-78
2023/02/05 05:15:02;;;;;;;31.10;17.08;;;;;;;5.41;100.00;103444.84;5082433;28;20459;-75
2023/02/05 05:17:27;;;;;;;31.73;17.23;;;;;;;5.38;100.00;103443.75;5084682;28;20436;-75
2023/02/05 05:19:53;;;;;;;33.20;17.20;;;;;;;5.36;100.00;103440.13;5081447;28;20031;-75
2023/02/05 05:22:18;;;;;;;32.20;17.63;;;;;;;5.35;100.00;103441.81;5084666;28;20478;-75
2023/02/05 05:24:43;;;;;;;32.50;17.85;;;;;;;5.40;100.00;103447.38;5082213;28;20505;-78
2023/02/05 05:27:09;;;;;;;32.00;18.10;;;;;;;5.43;100.00;103451.91;5083337;28;20115;-75
2023/02/05 05:29:34;;;;;;;33.15;18.88;;;;;;;5.44;100.00;103438.91;5083329;28;20107;-79
2023/02/05 05:32:00;;;;;;;34.58;19.13;;;;;;;5.47;100.00;103440.81;5082111;28;20446;-75
2023/02/05 05:34:25;;;;;;;34.63;18.55;;;;;;;5.47;100.00;103435.56;5084413;28;20122;-75
2023/02/05 05:36:52;;;;;;;32.17;18.27;;;;;;;5.49;100.00;103441.81;5081156;28;20029;-76
2023/02/05 05:44:50;;;;;;;33.20;18.80;;;;;;;5.51;100.00;103446.38;5081533;28;20502;-74
2023/02/05 05:47:16;;;;;;;33.17;18.77;;;;;;;5.48;100.00;103443.56;5084037;28;20478;-77
2023/02/05 05:49:42;;;;;;;33.53;19.35;;;;;;;5.40;100.00;103431.63;5081982;28;20034;-74
2023/02/05 05:52:07;;;;;;;35.97;20.08;;;;;;;5.37;100.00;103444.53;5082944;28;20025;-79
2023/02/05 05:54:32;;;;;;;35.13;20.80;;;;;;;5.32;100.00;103438.09;5083306;28;20467;-74
2023/02/05 05:56:57;;;;;;;35.95;20.85;;;;;;;5.31;100.00;103438.88;5081556;28;20027;-80
2023/02/05 05:59:23;;;;;;;36.97;21.73;;;;;;;5.24;100.00;103445.41;5084452;28;20114;-79
2023/02/05 06:01:48;;;;;;;32.40;18.63;;;;;;;5.32;100.00;103432.84;5080986;28;20058;-79
2023/02/05 06:04:13;;;;;;;28.88;15.52;;;;;;;5.36;100.00;103442.75;5083696;28;20032;-79
2023/02/05 06:06:40;;;;;;;31.48;16.10;;;;;;;5.40;100.00;103424.69;5083047;28;20043;-79
2023/02/05 06:09:06;;;;;;;24.65;11.57;;;;;;;5.52;100.00;103402.66;5082984;28;20033;-80
2023/02/05 06:11:31;;;;;;;24.73;10.68;;;;;;;5.57;100.00;103430.13;5084272;28;20032;-79
2023/02/05 06:13:56;;;;;;;22.33;9.80;;;;;;;5.44;100.00;103420.53;5081077;28;20033;-78
2023/02/05 06:16:22;;;;;;;22.30;9.48;;;;;;;5.39;100.00;103420.22;5085243;28;20024;-79
2023/02/05 06:18:47;;;;;;;19.90;7.80;;;;;;;5.41;100.00;103428.19;5081851;28;20052;-79
2023/02/05 06:21:13;;;;;;;21.58;8.40;;;;;;;5.35;100.00;103436.56;5083756;28;20029;-78
2023/02/05 06:23:38;;;;;;;21.30;8.18;;;;;;;5.36;100.00;103435.78;5083117;28;20176;-80
2023/02/05 06:26:03;;;;;;;20.45;8.13;;;;;;;5.36;100.00;103441.03;5082696;28;20445;-78
2023/02/05 06:28:29;;;;;;;19.80;7.35;;;;;;;5.36;100.00;103440.13;5083464;28;20119;-79
2023/02/05 06:30:54;;;;;;;18.58;7.10;;;;;;;5.35;100.00;103438.28;5081108;28;20025;-79
2023/02/05 06:33:19;;;;;;;18.52;6.35;;;;;;;5.36;100.00;103450.63;5081343;28;20032;-79
2023/02/05 06:35:45;;;;;;;18.00;6.47;;;;;;;5.33;100.00;103450.38;5084227;28;20398;-79
2023/02/05 06:38:10;;;;;;;17.73;6.20;;;;;;;5.37;100.00;103449.78;5082683;28;20399;-79
2023/02/05 06:40:36;;;;;;;19.80;6.45;;;;;;;5.36;100.00;103450.63;5082204;28;20033;-78
2023/02/05 06:43:01;;;;;;;22.02;6.70;;;;;;;5.34;100.00;103458.34;5083468;28;20479;-79
2023/02/05 06:45:27;;;;;;;20.98;6.05;;;;;;;5.39;100.00;103466.56;5081533;28;20091;-79
2023/02/05 06:47:54;;;;;;;19.52;5.60;;;;;;;5.31;100.00;103468.63;5086354;28;20033;-78
2023/02/05 06:50:21;;;;;;;19.50;4.53;;;;;;;5.20;100.00;103498.50;5085880;28;20041;-79
2023/02/05 06:52:47;;;;;;;17.45;3.80;;;;;;;5.06;100.00;103505.41;5088337;28;20028;-79
2023/02/05 06:55:12;;;;;;;19.52;3.53;;;;;;;4.99;100.00;103513.63;5085442;28;20450;-79
2023/02/05 06:57:37;;;;;;;16.33;2.90;;;;;;;4.92;100.00;103507.03;5086319;28;20031;-79
2023/02/05 07:00:07;;;;;;;19.13;3.30;;;;;;;4.81;100.00;103523.75;5087222;28;20157;-80
2023/02/05 07:02:32;;;;;;;18.75;2.88;;;;;;;4.64;100.00;103525.16;5085775;28;20429;-77
2023/02/05 07:04:58;;;;;;;16.33;2.60;;;;;;;4.61;100.00;103561.63;5087564;28;20035;-80
2023/02/05 07:07:23;;;;;;;16.85;2.60;;;;;;;4.59;100.00;103560.59;5084656;28;20032;-80
2023/02/05 07:09:49;;;;;;;20.55;2.80;;;;;;;4.58;100.00;103554.47;5087146;28;20028;-80
2023/02/05 07:12:14;;;;;;;19.17;2.58;;;;;;;4.63;100.00;103573.13;5085035;28;20024;-80
2023/02/05 07:14:40;;;;;;;20.40;2.65;;;;;;;4.50;100.00;103577.50;5086692;28;20123;-80
2023/02/05 07:17:06;;;;;;;13.95;2.30;;;;;;;4.48;100.00;103575.56;5086424;28;20051;-81
2023/02/05 07:19:32;;;;;;;16.08;2.30;;;;;;;4.47;100.00;103572.03;5085186;28;20099;-81
2023/02/05 07:21:58;;;;;;;16.70;2.67;;;;;;;4.44;100.00;103576.13;5085279;28;20522;-79
2023/02/05 07:24:24;;;;;;;9.93;2.20;;;;;;;4.47;100.00;103587.75;5094158;28;20067;-77
2023/02/05 07:26:49;;;;;;;16.45;2.60;;;;;;;4.44;100.00;103603.25;5088873;28;20027;-80
2023/02/05 07:29:14;;;;;;;19.23;3.90;;;;;;;4.43;100.00;103595.28;5093627;28;20024;-78
2023/02/05 07:31:40;;;;;;;16.70;3.08;;;;;;;4.44;100.00;103602.31;5092043;28;20402;-80
2023/02/05 07:34:05;;;;;;;17.48;2.40;;;;;;;4.47;100.00;103597.31;5095003;28;20051;-80
2023/02/05 07:36:30;;;;;;;17.83;2.65;;;;;;;4.48;100.00;103607.88;5093789;28;20027;-79
2023/02/05 07:38:56;;;;;;;18.25;2.90;;;;;;;4.47;100.00;103613.94;5093808;28;20028;-79
2023/02/05 07:41:22;;;;;;;16.23;2.50;;;;;;;4.51;100.00;103628.16;5094503;28;20379;-78
2023/02/05 07:43:52;;;;;;;19.52;3.30;;;;;;;4.54;100.00;103634.56;5091783;28;20031;-79
2023/02/05 07:46:19;;;;;;;17.77;2.90;;;;;;;4.51;100.00;103634.34;5091048;28;20035;-81
2023/02/05 07:48:44;;;;;;;20.02;3.15;;;;;;;4.57;100.00;103635.56;5094553;28;20035;-80
2023/02/05 07:51:21;;;;;;;18.38;3.20;;;;;;;4.59;100.00;103650.63;5092853;28;20032;-82
2023/02/05 07:53:46;;;;;;;18.67;2.75;;;;;;;4.57;100.00;103643.44;5090367;28;20032;-80
2023/02/05 07:56:12;;;;;;;16.83;2.72;;;;;;;4.69;100.00;103644.34;5092778;28;20043;-77
2023/02/05 07:58:38;;;;;;;19.85;3.15;;;;;;;4.59;100.00;103641.81;5093752;28;20033;-77
2023/02/05 08:01:04;;;;;;;18.90;2.70;;;;;;;4.61;100.00;103659.47;5090008;28;20024;-81
2023/02/05 08:03:30;;;;;;;15.90;2.65;;;;;;;4.65;100.00;103668.50;5093703;28;20024;-80
2023/02/05 08:05:56;;;;;;;17.10;2.75;;;;;;;4.71;100.00;103666.31;5093919;28;20028;-79
2023/02/05 08:08:22;;;;;;;18.10;2.50;;;;;;;4.86;100.00;103674.38;5094019;28;20031;-79
2023/02/05 08:10:55;;;;;;;18.88;2.97;;;;;;;4.97;100.00;103673.47;5093608;28;20103;-80
2023/02/05 08:13:20;;;;;;;16.95;2.53;;;;;;;5.03;100.00;103681.75;5094149;28;20164;-78
2023/02/05 08:15:46;;;;;;;18.60;2.70;;;;;;;5.07;100.00;103681.19;5093825;28;20582;-79
2023/02/05 08:18:11;;;;;;;17.70;2.97;;;;;;;5.12;100.00;103675.38;5093895;28;20036;-79
2023/02/05 08:20:36;;;;;;;19.02;3.00;;;;;;;5.11;100.00;103663.06;5092788;28;20031;-81
2023/02/05 08:23:03;;;;;;;18.90;3.22;;;;;;;5.18;100.00;103676.72;5093486;28;20060;-79
2023/02/05 08:25:29;;;;;;;20.50;3.22;;;;;;;5.21;100.00;103682.19;5090070;28;20028;-80
2023/02/05 08:27:54;;;;;;;21.02;2.95;;;;;;;5.25;100.00;103683.31;5091806;28;20078;-79
2023/02/05 08:30:20;;;;;;;19.27;3.10;;;;;;;5.31;100.00;103661.84;5092956;28;20486;-80
2023/02/05 08:32:48;;;;;;;20.92;3.00;;;;;;;5.34;100.00;103688.31;5092366;28;20052;-80
2023/02/05 08:35:13;;;;;;;22.63;3.20;;;;;;;5.29;100.00;103684.47;5093271;28;20036;-80
2023/02/05 08:37:38;;;;;;;21.17;3.30;;;;;;;5.27;100.00;103696.53;5093280;28;20035;-78
2023/02/05 08:40:04;;;;;;;21.70;3.65;;;;;;;5.28;100.00;103701.00;5092637;28;20036;-80
2023/02/05 08:42:30;;;;;;;22.42;3.47;;;;;;;5.21;100.00;103704.88;5093058;28;20119;-79
2023/02/05 08:44:57;;;;;;;21.65;3.47;;;;;;;5.22;100.00;103707.59;5092863;28;20089;-78
2023/02/05 08:47:23;;;;;;;21.25;3.47;;;;;;;5.23;100.00;103698.03;5091582;28;20036;-78
2023/02/05 08:49:48;;;;;;;24.25;3.78;;;;;;;5.30;100.00;103694.13;5091284;28;20024;-78
2023/02/05 08:52:14;;;;;;;24.20;3.92;;;;;;;5.43;100.00;103716.91;5092440;28;20043;-78
2023/02/05 08:54:40;;;;;;;20.27;3.28;;;;;;;5.46;100.00;103704.00;5093186;28;20039;-77
2023/02/05 08:57:06;;;;;;;21.48;3.30;;;;;;;5.61;100.00;103709.41;5093330;28;20036;-78
2023/02/05 08:59:31;;;;;;;21.40;3.60;;;;;;;5.64;100.00;103712.28;5093343;28;20070;-77
2023/02/05 09:01:56;;;;;;;22.33;3.67;;;;;;;5.66;100.00;103698.44;5093420;28;20032;-77
2023/02/05 09:04:22;;;;;;;22.08;3.60;;;;;;;5.63;100.00;103698.22;5093152;28;20119;-77
2023/02/05 09:06:47;;;;;;;21.30;3.25;;;;;;;5.73;100.00;103703.31;5089549;28;20024;-76
2023/02/05 09:09:13;;;;;;;20.52;3.50;;;;;;;5.75;100.00;103716.53;5089277;28;20032;-77
2023/02/05 09:11:39;;;;;;;23.52;3.75;;;;;;;5.73;100.00;103708.56;5085361;28;20071;-77
2023/02/05 09:14:05;;;;;;;20.98;3.40;;;;;;;5.74;100.00;103706.88;5082221;28;20428;-78
2023/02/05 09:16:30;;;;;;;20.42;3.53;;;;;;;5.83;100.00;103712.75;5084984;28;20115;-77
2023/02/05 09:18:57;;;;;;;22.00;3.78;;;;;;;5.81;100.00;103703.88;5083400;28;20360;-77
2023/02/05 09:21:23;;;;;;;21.33;3.47;;;;;;;5.83;100.00;103710.13;5083978;28;20024;-77
2023/02/05 09:23:50;;;;;;;22.33;3.58;;;;;;;5.80;100.00;103714.28;5084707;28;20040;-77
2023/02/05 09:26:16;;;;;;;20.35;3.63;;;;;;;5.79;100.00;103708.09;5082765;28;20028;-78
2023/02/05 09:28:41;;;;;;;22.05;3.53;;;;;;;5.80;100.00;103707.28;5084990;28;20024;-77
2023/02/05 09:31:17;;;;;;;22.75;4.00;;;;;;;5.91;100.00;103711.59;5081737;28;20082;-77
2023/02/05 09:33:43;;;;;;;24.90;4.18;;;;;;;5.84;100.00;103725.09;5082141;28;20039;-78
2023/02/05 09:36:20;;;;;;;24.23;3.70;;;;;;;5.87;100.00;103720.03;5085367;28;20020;-77
2023/02/05 09:38:46;;;;;;;24.08;4.40;;;;;;;5.85;100.00;103713.75;5082569;28;20117;-77
2023/02/05 09:41:11;;;;;;;23.52;4.07;;;;;;;5.93;100.00;103715.22;5085335;28;20020;-77
2023/02/05 09:43:54;;;;;;;26.52;4.43;;;;;;;6.04;100.00;103726.50;5081069;28;20062;-78
2023/02/05 09:46:26;;;;;;;26.13;4.47;;;;;;;6.10;100.00;103723.38;5082181;28;20032;-78
2023/02/05 09:49:11;;;;;;;24.40;4.00;;;;;;;6.10;100.00;103726.00;5084202;28;20031;-76
2023/02/05 09:51:42;;;;;;;24.85;4.47;;;;;;;6.13;100.00;103718.34;5081771;28;20491;-78
2023/02/05 09:54:21;;;;;;;26.70;4.60;;;;;;;6.10;100.00;103733.88;5081851;28;20020;-77
2023/02/05 09:56:49;;;;;;;27.25;5.10;;;;;;;5.98;100.00;103733.94;5082213;28;20383;-77
2023/02/05 09:59:24;;;;;;;25.67;4.95;;;;;;;6.07;100.00;103731.97;5084921;28;20380;-78
2023/02/05 10:01:53;;;;;;;28.67;5.20;;;;;;;6.06;100.00;103717.00;5082642;28;20032;-78
2023/02/05 10:04:18;;;;;;;25.10;5.18;;;;;;;6.15;100.00;103714.09;5083498;28;20024;-78
2023/02/05 10:06:56;;;;;;;27.35;5.00;;;;;;;6.15;100.00;103710.56;5081871;28;20514;-78
2023/02/05 10:09:33;;;;;;;26.63;4.55;;;;;;;6.15;100.00;103716.72;5083537;28;20495;-78
2023/02/05 10:12:04;;;;;;;27.48;5.05;;;;;;;6.27;100.00;103720.16;5083619;28;20530;-78
2023/02/05 10:14:32;;;;;;;27.75;5.10;;;;;;;6.19;100.00;103729.28;5082870;28;20028;-77
2023/02/05 10:17:17;;;;;;;28.35;4.82;;;;;;;6.20;100.00;103717.94;5083580;28;20471;-78
2023/02/05 10:19:57;;;;;;;26.88;5.10;;;;;;;6.28;100.00;103714.13;5081570;28;20028;-78
2023/02/05 10:22:34;;;;;;;27.15;5.45;;;;;;;6.35;100.00;103709.28;5084307;28;20355;-78
2023/02/05 10:25:27;;;;;;;26.00;4.50;;;;;;;6.45;100.00;103709.06;5087166;28;20024;-78
2023/02/05 10:27:57;;;;;;;27.52;4.47;;;;;;;6.56;100.00;103708.06;5086090;28;20476;-78
2023/02/05 10:30:31;;;;;;;25.30;4.47;;;;;;;6.60;100.00;103710.09;5087420;28;20472;-77
2023/02/05 10:32:59;;;;;;;25.98;5.00;;;;;;;6.65;100.00;103709.50;5087384;28;20055;-78
2023/02/05 10:35:31;;;;;;;26.92;4.70;;;;;;;6.66;100.00;103719.22;5087109;28;20459;-78
2023/02/05 10:37:57;;;;;;;27.33;4.80;;;;;;;6.76;100.00;103724.28;5087193;28;20032;-78
2023/02/05 10:40:33;;;;;;;27.25;4.60;;;;;;;6.93;100.00;103723.66;5086971;28;20351;-77
2023/02/05 10:43:20;;;;;;;26.25;4.72;;;;;;;6.90;100.00;103714.66;5085844;28;20029;-78
2023/02/05 10:45:47;;;;;;;26.40;5.07;;;;;;;6.77;100.00;103705.97;5084275;28;20111;-77
2023/02/05 10:48:15;;;;;;;28.58;5.38;;;;;;;6.80;100.00;103721.94;5087593;28;20036;-78
2023/02/05 10:51:04;;;;;;;26.95;4.25;;;;;;;7.15;100.00;103719.78;5085731;28;20051;-78
2023/02/05 10:53:30;;;;;;;24.15;4.35;;;;;;;7.46;100.00;103706.84;5085985;28;20103;-78
2023/02/05 10:55:58;;;;;;;25.77;4.80;;;;;;;7.99;100.00;103718.88;5087904;28;20032;-78
2023/02/05 10:58:46;;;;;;;25.85;4.90;;;;;;;8.42;100.00;103712.63;5085076;28;20103;-78
2023/02/05 11:01:24;;;;;;;25.88;4.65;;;;;;;8.57;100.00;103707.38;5085791;28;20024;-78
2023/02/05 11:04:00;;;;;;;26.27;4.45;;;;;;;8.76;100.00;103719.88;5085137;28;20028;-78
2023/02/05 11:06:30;;;;;;;27.10;4.53;;;;;;;9.82;100.00;103738.06;5084499;28;20037;-77
2023/02/05 11:08:56;;;;;;;26.60;4.93;;;;;;;9.95;100.00;103739.63;5087276;28;20402;-78
2023/02/05 11:11:27;;;;;;;25.95;4.57;;;;;;;9.70;100.00;103729.50;5084755;28;20020;-77
2023/02/05 11:13:55;;;;;;;21.75;3.60;;;;;;;10.01;100.00;103741.69;5084076;28;20025;-77
2023/02/05 11:16:23;;;;;;;20.38;3.50;;;;;;;10.74;100.00;103730.44;5083845;28;20017;-76
2023/02/05 11:18:57;;;;;;;21.85;3.83;;;;;;;11.58;100.00;103740.63;5083813;28;20029;-78
2023/02/05 11:21:44;;;;;;;22.15;3.90;;;;;;;11.14;100.00;103727.09;5084169;28;20104;-78
2023/02/05 11:24:21;;;;;;;26.65;4.30;;;;;;;10.21;100.00;103730.41;5084962;28;20039;-77